createdAt,value
2023-02-23T00:07:19.415Z,5.34
2023-02-23T00:14:53.661Z,5.32
2023-02-23T00:22:28.899Z,5.29
2023-02-23T00:30:02.854Z,5.26
2023-02-23T00:37:39.410Z,5.24
2023-02-23T00:45:14.122Z,5.22
2023-02-23T00:52:49.135Z,5.19
2023-02-23T01:00:25.566Z,5.16
2023-02-23T01:08:00.842Z,5.13
2023-02-23T01:15:34.723Z,5.10
2023-02-23T01:23:10.132Z,5.05
2023-02-23T01:30:44.180Z,4.99
2023-02-23T01:38:19.501Z,4.97
2023-02-23T01:45:56.151Z,4.94
2023-02-23T01:53:36.293Z,4.91
2023-02-23T02:01:11.182Z,4.88
2023-02-23T02:08:55.447Z,4.86
2023-02-23T02:17:04.489Z,4.85
2023-02-23T02:25:11.893Z,4.79
2023-02-23T02:33:21.548Z,4.75
2023-02-23T02:41:04.199Z,4.72
2023-02-23T02:48:43.548Z,4.67
2023-02-23T02:56:21.212Z,4.65
2023-02-23T03:04:13.045Z,4.61
2023-02-23T03:12:17.419Z,4.59
2023-02-23T03:20:17.616Z,4.56
2023-02-23T03:28:16.235Z,4.50
2023-02-23T03:36:14.640Z,4.41
2023-02-23T03:44:18.462Z,4.38
2023-02-23T03:52:14.621Z,4.30
2023-02-23T04:00:13.853Z,4.18
2023-02-23T04:08:09.364Z,4.21
2023-02-23T04:15:49.301Z,4.13
2023-02-23T04:23:24.402Z,4.06
2023-02-23T04:31:00.779Z,4.03
2023-02-23T04:38:34.939Z,4.06
2023-02-23T04:46:10.215Z,4.00
2023-02-23T04:53:44.223Z,3.96
2023-02-23T05:01:21.041Z,3.93
2023-02-23T05:08:55.314Z,3.85
2023-02-23T05:16:30.490Z,3.84
2023-02-23T05:24:04.522Z,3.82
2023-02-23T05:31:40.109Z,3.77
2023-02-23T05:39:13.980Z,3.75
2023-02-23T05:46:49.318Z,3.68
2023-02-23T05:54:23.190Z,3.59
2023-02-23T06:01:58.373Z,3.59
2023-02-23T06:09:32.300Z,3.55
2023-02-23T06:17:08.047Z,3.47
2023-02-23T06:24:41.942Z,3.42
2023-02-23T06:32:17.548Z,3.39
2023-02-23T06:39:51.592Z,3.43
2023-02-23T06:47:26.955Z,3.41
2023-02-23T06:55:00.820Z,3.45
2023-02-23T07:02:37.602Z,3.48
2023-02-23T07:10:13.126Z,3.55
2023-02-23T07:17:49.494Z,3.56
2023-02-23T07:25:23.514Z,3.66
2023-02-23T07:33:01.297Z,3.72
2023-02-23T07:40:35.283Z,3.73
2023-02-23T07:48:10.785Z,3.77
2023-02-23T07:55:44.712Z,3.91
2023-02-23T08:11:12.031Z,4.13
2023-02-23T08:18:47.457Z,4.28
2023-02-23T08:34:14.283Z,4.57
2023-02-23T08:41:48.221Z,4.65
2023-02-23T08:49:24.052Z,4.76
2023-02-23T08:56:58.949Z,4.82
2023-02-23T09:04:35.405Z,4.91
2023-02-23T09:12:09.398Z,5.02
2023-02-23T09:19:45.072Z,5.15
2023-02-23T09:27:19.183Z,5.28
2023-02-23T09:34:54.603Z,5.50
2023-02-23T09:42:38.941Z,5.83
2023-02-23T09:50:22.745Z,6.21
2023-02-23T09:57:59.460Z,6.64
2023-02-23T10:05:40.271Z,7.07
2023-02-23T10:13:21.252Z,7.15
2023-02-23T10:21:01.705Z,7.47
2023-02-23T10:28:37.719Z,7.52
2023-02-23T10:36:19.424Z,7.76
2023-02-23T10:43:53.554Z,7.96
2023-02-23T10:51:33.737Z,8.14
2023-02-23T10:59:09.567Z,8.22
2023-02-23T11:06:44.978Z,8.37
2023-02-23T11:14:19.318Z,8.48
2023-02-23T11:21:54.630Z,8.57
2023-02-23T11:29:35.746Z,8.62
2023-02-23T11:37:21.852Z,8.70
2023-02-23T11:45:05.629Z,8.77
2023-02-23T11:52:45.122Z,8.94
2023-02-23T12:00:25.919Z,9.05
2023-02-23T12:08:08.018Z,9.19
2023-02-23T12:15:49.334Z,9.41
2023-02-23T12:23:28.339Z,9.59
2023-02-23T12:31:06.470Z,9.73
2023-02-23T12:38:52.220Z,9.80
2023-02-23T12:46:29.755Z,9.83
2023-02-23T12:54:06.781Z,9.91
2023-02-23T13:01:47.795Z,9.91
2023-02-23T13:09:36.268Z,9.96
2023-02-23T13:17:27.415Z,10.05
2023-02-23T13:25:09.646Z,10.06
2023-02-23T13:32:43.804Z,10.12
2023-02-23T13:40:33.212Z,10.15
2023-02-23T13:48:20.525Z,10.17
2023-02-23T13:56:03.285Z,10.20
2023-02-23T14:03:49.337Z,10.18
2023-02-23T14:11:39.825Z,10.16
2023-02-23T14:19:30.648Z,10.12
2023-02-23T14:27:41.142Z,9.99
2023-02-23T14:35:42.769Z,9.81
2023-02-23T14:43:42.826Z,9.67
2023-02-23T14:51:23.612Z,9.61
2023-02-23T15:14:50.930Z,9.29
2023-02-23T15:22:28.131Z,9.16
2023-02-23T15:30:21.192Z,9.14
2023-02-23T15:38:05.759Z,9.14
2023-02-23T15:45:53.834Z,9.11
2023-02-23T15:53:31.682Z,9.11
2023-02-23T16:01:13.296Z,9.10
2023-02-23T16:08:58.242Z,9.09
2023-02-23T16:16:36.082Z,9.10
2023-02-23T16:24:22.230Z,9.08
2023-02-23T16:32:01.569Z,9.06
2023-02-23T16:39:35.498Z,9.06
2023-02-23T16:47:36.213Z,9.06
2023-02-23T16:55:18.155Z,9.05
2023-02-23T17:02:53.802Z,9.05
2023-02-23T17:10:32.495Z,9.04
2023-02-23T17:18:08.191Z,9.01
2023-02-23T17:25:42.969Z,9.02
2023-02-23T17:41:12.071Z,9.00
2023-02-23T17:48:48.152Z,8.95
2023-02-23T17:56:23.706Z,8.94
2023-02-23T18:04:00.476Z,8.91
2023-02-23T18:11:35.475Z,8.88
2023-02-23T18:19:10.797Z,8.86
2023-02-23T18:26:44.857Z,8.78
2023-02-23T18:34:20.050Z,8.75
2023-02-23T18:41:54.097Z,8.69
2023-02-23T18:49:29.552Z,8.66
2023-02-23T18:57:03.401Z,8.61
2023-02-23T19:04:39.452Z,8.59
2023-02-23T19:12:14.733Z,8.56
2023-02-23T19:27:43.152Z,8.53
2023-02-23T19:35:19.457Z,8.50
2023-02-23T19:50:49.786Z,8.46
2023-02-23T19:58:27.422Z,8.40
2023-02-23T20:06:05.827Z,8.36
2023-02-23T20:13:41.480Z,8.24
2023-02-23T20:21:20.373Z,7.93
2023-02-23T20:28:54.881Z,7.69
2023-02-23T20:36:30.141Z,7.56
2023-02-23T20:44:04.214Z,7.44
2023-02-23T20:51:40.210Z,7.44
2023-02-23T20:59:15.665Z,7.33
2023-02-23T21:06:50.913Z,7.32
2023-02-23T21:14:24.797Z,7.30
2023-02-23T21:22:01.604Z,7.28
2023-02-23T21:29:35.548Z,7.26
2023-02-23T21:37:10.761Z,7.23
2023-02-23T21:44:45.852Z,7.24
2023-02-23T21:52:21.766Z,7.26
2023-02-23T21:59:55.682Z,7.24
2023-02-23T22:07:32.475Z,7.21
2023-02-23T22:15:08.257Z,7.15
2023-02-23T22:22:43.538Z,7.11
2023-02-23T22:30:20.293Z,7.11
2023-02-23T22:37:55.544Z,7.11
2023-02-23T22:45:30.065Z,7.04
2023-02-23T22:53:05.993Z,7.01
2023-02-23T23:00:39.806Z,7.01
2023-02-23T23:08:15.519Z,6.99
2023-02-23T23:15:51.743Z,6.95
2023-02-23T23:23:28.595Z,6.92
2023-02-23T23:31:03.605Z,6.90
2023-02-23T23:38:39.024Z,6.88
2023-02-23T23:54:09.843Z,6.86
